sensor_id;sensor_type;location;lat;lon;timestamp;P1;durP1;ratioP1;P2;durP2;ratioP2
6197;SDS011;3132;42.622;23.328;2024-02-04T00:00:13;12.77;;;11.63;;
6197;SDS011;3132;42.622;23.328;2024-02-04T00:02:40;12.70;;;11.60;;
6197;SDS011;3132;42.622;23.328;2024-02-04T00:05:05;12.37;;;11.43;;
6197;SDS011;3132;42.622;23.328;2024-02-04T00:07:31;13.33;;;12.23;;
6197;SDS011;3132;42.622;23.328;2024-02-04T00:09:56;12.27;;;11.50;;
6197;SDS011;3132;42.622;23.328;2024-02-04T00:12:21;12.20;;;11.30;;
6197;SDS011;3132;42.622;23.328;2024-02-04T00:14:47;12.33;;;11.33;;
6197;SDS011;3132;42.622;23.328;2024-02-04T00:17:14;11.87;;;11.10;;
6197;SDS011;3132;42.622;23.328;2024-02-04T00:19:40;13.97;;;12.60;;
6197;SDS011;3132;42.622;23.328;2024-02-04T00:22:06;11.97;;;11.27;;
6197;SDS011;3132;42.622;23.328;2024-02-04T00:24:32;12.27;;;11.47;;
6197;SDS011;3132;42.622;23.328;2024-02-04T00:26:57;12.17;;;11.27;;
6197;SDS011;3132;42.622;23.328;2024-02-04T00:29:22;13.17;;;11.97;;
6197;SDS011;3132;42.622;23.328;2024-02-04T00:31:48;11.83;;;10.87;;
6197;SDS011;3132;42.622;23.328;2024-02-04T00:34:13;11.40;;;10.70;;
6197;SDS011;3132;42.622;23.328;2024-02-04T00:36:39;12.40;;;11.53;;
6197;SDS011;3132;42.622;23.328;2024-02-04T00:39:04;11.90;;;11.20;;
6197;SDS011;3132;42.622;23.328;2024-02-04T00:41:30;12.67;;;11.77;;
6197;SDS011;3132;42.622;23.328;2024-02-04T00:43:55;12.37;;;11.67;;
6197;SDS011;3132;42.622;23.328;2024-02-04T00:46:20;11.43;;;10.73;;
6197;SDS011;3132;42.622;23.328;2024-02-04T00:48:46;11.73;;;11.03;;
6197;SDS011;3132;42.622;23.328;2024-02-04T00:51:11;13.27;;;12.17;;
6197;SDS011;3132;42.622;23.328;2024-02-04T00:53:38;12.30;;;11.40;;
6197;SDS011;3132;42.622;23.328;2024-02-04T00:56:03;12.47;;;11.40;;
6197;SDS011;3132;42.622;23.328;2024-02-04T00:58:29;11.60;;;10.80;;
6197;SDS011;3132;42.622;23.328;2024-02-04T01:00:55;11.40;;;10.80;;
6197;SDS011;3132;42.622;23.328;2024-02-04T01:03:21;14.23;;;13.53;;
6197;SDS011;3132;42.622;23.328;2024-02-04T01:05:46;12.60;;;11.80;;
6197;SDS011;3132;42.622;23.328;2024-02-04T01:08:11;11.73;;;10.77;;
6197;SDS011;3132;42.622;23.328;2024-02-04T01:10:37;11.50;;;10.80;;
6197;SDS011;3132;42.622;23.328;2024-02-04T01:13:03;12.37;;;11.53;;
6197;SDS011;3132;42.622;23.328;2024-02-04T01:15:29;12.13;;;11.33;;
6197;SDS011;3132;42.622;23.328;2024-02-04T01:17:54;12.37;;;11.57;;
6197;SDS011;3132;42.622;23.328;2024-02-04T01:20:19;12.43;;;11.43;;
6197;SDS011;3132;42.622;23.328;2024-02-04T01:22:45;11.93;;;11.23;;
6197;SDS011;3132;42.622;23.328;2024-02-04T01:25:10;11.47;;;10.83;;
6197;SDS011;3132;42.622;23.328;2024-02-04T01:27:35;10.30;;;9.70;;
6197;SDS011;3132;42.622;23.328;2024-02-04T01:30:01;10.73;;;10.13;;
6197;SDS011;3132;42.622;23.328;2024-02-04T01:32:26;12.17;;;11.47;;
6197;SDS011;3132;42.622;23.328;2024-02-04T01:34:51;11.20;;;10.60;;
6197;SDS011;3132;42.622;23.328;2024-02-04T01:37:17;11.57;;;10.97;;
6197;SDS011;3132;42.622;23.328;2024-02-04T01:39:43;10.87;;;10.27;;
6197;SDS011;3132;42.622;23.328;2024-02-04T01:42:08;10.27;;;9.47;;
6197;SDS011;3132;42.622;23.328;2024-02-04T01:44:34;11.37;;;10.53;;
6197;SDS011;3132;42.622;23.328;2024-02-04T01:46:59;10.13;;;9.53;;
6197;SDS011;3132;42.622;23.328;2024-02-04T01:49:24;11.07;;;10.47;;
6197;SDS011;3132;42.622;23.328;2024-02-04T01:51:51;10.97;;;10.30;;
6197;SDS011;3132;42.622;23.328;2024-02-04T01:54:17;10.97;;;10.37;;
6197;SDS011;3132;42.622;23.328;2024-02-04T01:56:42;11.67;;;10.97;;
6197;SDS011;3132;42.622;23.328;2024-02-04T01:59:11;11.63;;;11.03;;
6197;SDS011;3132;42.622;23.328;2024-02-04T02:01:38;10.57;;;10.00;;
6197;SDS011;3132;42.622;23.328;2024-02-04T02:04:04;12.13;;;11.37;;
6197;SDS011;3132;42.622;23.328;2024-02-04T02:06:30;10.17;;;9.57;;
6197;SDS011;3132;42.622;23.328;2024-02-04T02:08:56;10.17;;;9.67;;
6197;SDS011;3132;42.622;23.328;2024-02-04T02:11:42;11.97;;;11.33;;
6197;SDS011;3132;42.622;23.328;2024-02-04T02:14:16;11.33;;;10.63;;
6197;SDS011;3132;42.622;23.328;2024-02-04T02:16:44;11.27;;;10.40;;
6197;SDS011;3132;42.622;23.328;2024-02-04T02:24:42;11.37;;;10.77;;
6197;SDS011;3132;42.622;23.328;2024-02-04T02:27:07;10.00;;;9.40;;
6197;SDS011;3132;42.622;23.328;2024-02-04T02:29:33;10.33;;;9.63;;
6197;SDS011;3132;42.622;23.328;2024-02-04T02:31:59;10.60;;;9.90;;
6197;SDS011;3132;42.622;23.328;2024-02-04T02:34:26;9.70;;;9.20;;
6197;SDS011;3132;42.622;23.328;2024-02-04T02:37:35;9.57;;;9.10;;
6197;SDS011;3132;42.622;23.328;2024-02-04T02:40:25;10.50;;;10.00;;
6197;SDS011;3132;42.622;23.328;2024-02-04T02:43:00;11.07;;;10.30;;
6197;SDS011;3132;42.622;23.328;2024-02-04T02:45:28;9.53;;;9.03;;
6197;SDS011;3132;42.622;23.328;2024-02-04T02:47:54;10.20;;;9.70;;
6197;SDS011;3132;42.622;23.328;2024-02-04T02:50:20;10.00;;;9.50;;
6197;SDS011;3132;42.622;23.328;2024-02-04T02:52:45;10.80;;;10.30;;
6197;SDS011;3132;42.622;23.328;2024-02-04T02:55:11;9.97;;;9.47;;
6197;SDS011;3132;42.622;23.328;2024-02-04T02:57:36;10.17;;;9.67;;
6197;SDS011;3132;42.622;23.328;2024-02-04T03:00:02;9.97;;;9.40;;
6197;SDS011;3132;42.622;23.328;2024-02-04T03:02:28;10.30;;;9.70;;
6197;SDS011;3132;42.622;23.328;2024-02-04T03:04:54;10.47;;;9.97;;
6197;SDS011;3132;42.622;23.328;2024-02-04T03:07:19;9.73;;;9.33;;
6197;SDS011;3132;42.622;23.328;2024-02-04T03:09:45;10.10;;;9.60;;
6197;SDS011;3132;42.622;23.328;2024-02-04T03:12:10;9.43;;;9.03;;
6197;SDS011;3132;42.622;23.328;2024-02-04T03:14:35;9.10;;;8.73;;
6197;SDS011;3132;42.622;23.328;2024-02-04T03:17:01;8.73;;;8.33;;
6197;SDS011;3132;42.622;23.328;2024-02-04T03:19:26;9.90;;;8.20;;
6197;SDS011;3132;42.622;23.328;2024-02-04T03:21:51;9.33;;;8.93;;
6197;SDS011;3132;42.622;23.328;2024-02-04T03:24:17;9.27;;;8.87;;
6197;SDS011;3132;42.622;23.328;2024-02-04T03:26:42;9.50;;;9.10;;
6197;SDS011;3132;42.622;23.328;2024-02-04T03:29:07;7.87;;;7.47;;
6197;SDS011;3132;42.622;23.328;2024-02-04T03:31:33;8.93;;;8.47;;
6197;SDS011;3132;42.622;23.328;2024-02-04T03:33:58;8.27;;;7.97;;
6197;SDS011;3132;42.622;23.328;2024-02-04T03:36:24;9.20;;;8.80;;
6197;SDS011;3132;42.622;23.328;2024-02-04T03:38:52;9.37;;;8.87;;
6197;SDS011;3132;42.622;23.328;2024-02-04T03:41:18;8.80;;;8.47;;
6197;SDS011;3132;42.622;23.328;2024-02-04T03:43:43;10.10;;;9.70;;
6197;SDS011;3132;42.622;23.328;2024-02-04T03:46:18;9.30;;;8.80;;
6197;SDS011;3132;42.622;23.328;2024-02-04T03:48:43;9.70;;;8.97;;
6197;SDS011;3132;42.622;23.328;2024-02-04T03:51:14;9.60;;;9.20;;
6197;SDS011;3132;42.622;23.328;2024-02-04T03:53:41;9.43;;;8.83;;
6197;SDS011;3132;42.622;23.328;2024-02-04T03:56:06;9.97;;;9.47;;
6197;SDS011;3132;42.622;23.328;2024-02-04T03:58:32;9.33;;;8.83;;
6197;SDS011;3132;42.622;23.328;2024-02-04T04:00:58;9.17;;;8.77;;
6197;SDS011;3132;42.622;23.328;2024-02-04T04:03:24;9.63;;;9.13;;
6197;SDS011;3132;42.622;23.328;2024-02-04T04:05:49;9.83;;;9.43;;
6197;SDS011;3132;42.622;23.328;2024-02-04T04:08:15;8.77;;;8.37;;
6197;SDS011;3132;42.622;23.328;2024-02-04T04:10:41;10.00;;;9.60;;
6197;SDS011;3132;42.622;23.328;2024-02-04T04:13:06;8.67;;;8.37;;
6197;SDS011;3132;42.622;23.328;2024-02-04T04:15:32;8.80;;;8.47;;
6197;SDS011;3132;42.622;23.328;2024-02-04T04:17:57;9.23;;;8.83;;
6197;SDS011;3132;42.622;23.328;2024-02-04T04:20:22;9.67;;;9.27;;
6197;SDS011;3132;42.622;23.328;2024-02-04T04:22:48;9.87;;;9.47;;
6197;SDS011;3132;42.622;23.328;2024-02-04T04:25:13;8.93;;;8.53;;
6197;SDS011;3132;42.622;23.328;2024-02-04T04:27:39;8.63;;;8.33;;
6197;SDS011;3132;42.622;23.328;2024-02-04T04:30:05;9.30;;;8.90;;
6197;SDS011;3132;42.622;23.328;2024-02-04T04:32:31;8.77;;;8.47;;
6197;SDS011;3132;42.622;23.328;2024-02-04T04:34:57;9.70;;;9.30;;
6197;SDS011;3132;42.622;23.328;2024-02-04T04:37:22;9.17;;;8.77;;
6197;SDS011;3132;42.622;23.328;2024-02-04T04:39:47;8.77;;;8.47;;
6197;SDS011;3132;42.622;23.328;2024-02-04T04:42:13;10.30;;;9.67;;
6197;SDS011;3132;42.622;23.328;2024-02-04T04:44:38;8.93;;;8.63;;
6197;SDS011;3132;42.622;23.328;2024-02-04T04:47:03;9.23;;;8.87;;
6197;SDS011;3132;42.622;23.328;2024-02-04T04:49:29;9.03;;;8.70;;
6197;SDS011;3132;42.622;23.328;2024-02-04T04:51:54;10.37;;;9.87;;
6197;SDS011;3132;42.622;23.328;2024-02-04T04:54:20;9.20;;;8.70;;
6197;SDS011;3132;42.622;23.328;2024-02-04T04:56:45;10.07;;;9.67;;
6197;SDS011;3132;42.622;23.328;2024-02-04T04:59:10;10.63;;;10.13;;
6197;SDS011;3132;42.622;23.328;2024-02-04T05:01:36;9.27;;;8.87;;
6197;SDS011;3132;42.622;23.328;2024-02-04T05:04:01;9.57;;;9.13;;
6197;SDS011;3132;42.622;23.328;2024-02-04T05:06:27;9.70;;;9.20;;
6197;SDS011;3132;42.622;23.328;2024-02-04T05:08:52;10.00;;;9.60;;
6197;SDS011;3132;42.622;23.328;2024-02-04T05:11:18;10.83;;;10.07;;
6197;SDS011;3132;42.622;23.328;2024-02-04T05:13:43;10.47;;;9.97;;
6197;SDS011;3132;42.622;23.328;2024-02-04T05:16:08;10.63;;;10.13;;
6197;SDS011;3132;42.622;23.328;2024-02-04T05:18:34;9.70;;;9.30;;
6197;SDS011;3132;42.622;23.328;2024-02-04T05:21:01;10.07;;;9.67;;
6197;SDS011;3132;42.622;23.328;2024-02-04T05:23:27;10.17;;;9.70;;
6197;SDS011;3132;42.622;23.328;2024-02-04T05:25:53;9.67;;;9.27;;
6197;SDS011;3132;42.622;23.328;2024-02-04T05:28:18;9.47;;;9.03;;
6197;SDS011;3132;42.622;23.328;2024-02-04T05:30:43;9.43;;;9.00;;
6197;SDS011;3132;42.622;23.328;2024-02-04T05:33:09;9.33;;;8.93;;
6197;SDS011;3132;42.622;23.328;2024-02-04T05:35:38;9.47;;;8.97;;
6197;SDS011;3132;42.622;23.328;2024-02-04T05:38:05;9.30;;;8.83;;
6197;SDS011;3132;42.622;23.328;2024-02-04T05:40:30;9.80;;;9.33;;
6197;SDS011;3132;42.622;23.328;2024-02-04T05:42:56;9.73;;;9.27;;
6197;SDS011;3132;42.622;23.328;2024-02-04T05:45:21;10.33;;;9.77;;
6197;SDS011;3132;42.622;23.328;2024-02-04T05:47:46;10.07;;;9.67;;
6197;SDS011;3132;42.622;23.328;2024-02-04T05:50:12;9.80;;;9.20;;
6197;SDS011;3132;42.622;23.328;2024-02-04T05:52:37;10.17;;;9.73;;
6197;SDS011;3132;42.622;23.328;2024-02-04T05:55:03;9.43;;;9.00;;
6197;SDS011;3132;42.622;23.328;2024-02-04T05:57:28;10.63;;;10.13;;
6197;SDS011;3132;42.622;23.328;2024-02-04T05:59:54;9.73;;;9.33;;
6197;SDS011;3132;42.622;23.328;2024-02-04T06:02:20;10.20;;;9.70;;
6197;SDS011;3132;42.622;23.328;2024-02-04T06:04:45;10.07;;;9.43;;
6197;SDS011;3132;42.622;23.328;2024-02-04T06:07:13;11.23;;;10.63;;
6197;SDS011;3132;42.622;23.328;2024-02-04T06:09:38;10.27;;;9.77;;
6197;SDS011;3132;42.622;23.328;2024-02-04T06:12:04;10.30;;;9.80;;
6197;SDS011;3132;42.622;23.328;2024-02-04T06:14:32;10.53;;;10.03;;
6197;SDS011;3132;42.622;23.328;2024-02-04T06:16:59;10.93;;;10.33;;
6197;SDS011;3132;42.622;23.328;2024-02-04T06:19:24;9.90;;;9.40;;
6197;SDS011;3132;42.622;23.328;2024-02-04T06:21:49;10.57;;;9.97;;
6197;SDS011;3132;42.622;23.328;2024-02-04T06:24:15;9.93;;;9.37;;
6197;SDS011;3132;42.622;23.328;2024-02-04T06:26:40;11.73;;;11.13;;
6197;SDS011;3132;42.622;23.328;2024-02-04T06:29:06;10.03;;;9.53;;
6197;SDS011;3132;42.622;23.328;2024-02-04T06:31:32;9.23;;;8.77;;
6197;SDS011;3132;42.622;23.328;2024-02-04T06:33:57;10.17;;;9.67;;
6197;SDS011;3132;42.622;23.328;2024-02-04T06:36:23;10.43;;;9.93;;
6197;SDS011;3132;42.622;23.328;2024-02-04T06:38:48;10.37;;;9.90;;
6197;SDS011;3132;42.622;23.328;2024-02-04T06:41:13;10.40;;;9.67;;
6197;SDS011;3132;42.622;23.328;2024-02-04T06:43:39;8.93;;;8.53;;
6197;SDS011;3132;42.622;23.328;2024-02-04T06:46:04;9.90;;;9.33;;
6197;SDS011;3132;42.622;23.328;2024-02-04T06:48:30;13.73;;;13.13;;
6197;SDS011;3132;42.622;23.328;2024-02-04T06:50:55;9.23;;;8.83;;
6197;SDS011;3132;42.622;23.328;2024-02-04T06:53:20;9.53;;;9.03;;
6197;SDS011;3132;42.622;23.328;2024-02-04T06:55:46;10.17;;;9.63;;
6197;SDS011;3132;42.622;23.328;2024-02-04T06:58:11;9.70;;;9.40;;
6197;SDS011;3132;42.622;23.328;2024-02-04T07:00:36;8.00;;;7.73;;
6197;SDS011;3132;42.622;23.328;2024-02-04T07:03:02;9.67;;;9.27;;
6197;SDS011;3132;42.622;23.328;2024-02-04T07:05:27;9.10;;;8.60;;
6197;SDS011;3132;42.622;23.328;2024-02-04T07:07:53;9.60;;;9.20;;
6197;SDS011;3132;42.622;23.328;2024-02-04T07:10:18;8.83;;;8.53;;
6197;SDS011;3132;42.622;23.328;2024-02-04T07:12:44;10.03;;;9.63;;
6197;SDS011;3132;42.622;23.328;2024-02-04T07:15:09;9.63;;;9.23;;
6197;SDS011;3132;42.622;23.328;2024-02-04T07:17:35;9.03;;;8.63;;
6197;SDS011;3132;42.622;23.328;2024-02-04T07:20:03;8.60;;;8.23;;
6197;SDS011;3132;42.622;23.328;2024-02-04T07:22:30;9.27;;;8.87;;
6197;SDS011;3132;42.622;23.328;2024-02-04T07:24:55;9.23;;;8.83;;
6197;SDS011;3132;42.622;23.328;2024-02-04T07:27:21;9.13;;;8.83;;
6197;SDS011;3132;42.622;23.328;2024-02-04T07:29:46;8.90;;;8.60;;
6197;SDS011;3132;42.622;23.328;2024-02-04T07:32:12;8.97;;;8.67;;
6197;SDS011;3132;42.622;23.328;2024-02-04T07:34:38;8.87;;;8.57;;
6197;SDS011;3132;42.622;23.328;2024-02-04T07:37:03;9.07;;;8.67;;
6197;SDS011;3132;42.622;23.328;2024-02-04T07:39:28;8.77;;;8.37;;
6197;SDS011;3132;42.622;23.328;2024-02-04T07:41:55;9.00;;;8.57;;
6197;SDS011;3132;42.622;23.328;2024-02-04T07:44:24;8.40;;;8.10;;
6197;SDS011;3132;42.622;23.328;2024-02-04T07:46:50;8.67;;;8.27;;
6197;SDS011;3132;42.622;23.328;2024-02-04T07:49:15;8.53;;;8.23;;
6197;SDS011;3132;42.622;23.328;2024-02-04T07:51:41;9.63;;;9.23;;
6197;SDS011;3132;42.622;23.328;2024-02-04T07:54:06;8.50;;;8.20;;
6197;SDS011;3132;42.622;23.328;2024-02-04T07:56:31;8.03;;;7.73;;
6197;SDS011;3132;42.622;23.328;2024-02-04T07:58:57;8.47;;;8.17;;
6197;SDS011;3132;42.622;23.328;2024-02-04T08:01:22;9.13;;;8.83;;
6197;SDS011;3132;42.622;23.328;2024-02-04T08:03:49;8.60;;;8.30;;
6197;SDS011;3132;42.622;23.328;2024-02-04T08:06:14;8.30;;;8.10;;
6197;SDS011;3132;42.622;23.328;2024-02-04T08:08:39;8.33;;;8.03;;
6197;SDS011;3132;42.622;23.328;2024-02-04T08:11:07;8.63;;;8.33;;
6197;SDS011;3132;42.622;23.328;2024-02-04T08:13:32;9.37;;;9.07;;
6197;SDS011;3132;42.622;23.328;2024-02-04T08:15:57;8.80;;;8.50;;
6197;SDS011;3132;42.622;23.328;2024-02-04T08:18:23;8.17;;;7.90;;
6197;SDS011;3132;42.622;23.328;2024-02-04T08:20:48;9.13;;;8.83;;
6197;SDS011;3132;42.622;23.328;2024-02-04T08:23:14;8.67;;;8.37;;
6197;SDS011;3132;42.622;23.328;2024-02-04T08:25:40;9.50;;;9.00;;
6197;SDS011;3132;42.622;23.328;2024-02-04T08:28:05;9.07;;;8.70;;
6197;SDS011;3132;42.622;23.328;2024-02-04T08:30:31;8.67;;;8.23;;
6197;SDS011;3132;42.622;23.328;2024-02-04T08:32:56;7.87;;;7.57;;
6197;SDS011;3132;42.622;23.328;2024-02-04T08:35:22;8.33;;;7.93;;
6197;SDS011;3132;42.622;23.328;2024-02-04T08:37:47;9.03;;;8.63;;
6197;SDS011;3132;42.622;23.328;2024-02-04T08:40:12;7.83;;;7.63;;
6197;SDS011;3132;42.622;23.328;2024-02-04T08:42:38;8.83;;;8.53;;
6197;SDS011;3132;42.622;23.328;2024-02-04T08:45:04;9.93;;;9.00;;
6197;SDS011;3132;42.622;23.328;2024-02-04T08:47:30;8.30;;;7.97;;
6197;SDS011;3132;42.622;23.328;2024-02-04T08:49:55;11.47;;;10.47;;
6197;SDS011;3132;42.622;23.328;2024-02-04T08:52:21;15.73;;;14.30;;
6197;SDS011;3132;42.622;23.328;2024-02-04T08:54:46;10.57;;;10.10;;
6197;SDS011;3132;42.622;23.328;2024-02-04T08:57:12;8.80;;;8.47;;
6197;SDS011;3132;42.622;23.328;2024-02-04T08:59:37;10.03;;;9.63;;
6197;SDS011;3132;42.622;23.328;2024-02-04T09:02:02;10.73;;;10.13;;
6197;SDS011;3132;42.622;23.328;2024-02-04T09:04:28;8.73;;;8.23;;
6197;SDS011;3132;42.622;23.328;2024-02-04T09:06:53;10.60;;;10.20;;
6197;SDS011;3132;42.622;23.328;2024-02-04T09:09:18;9.13;;;8.83;;
6197;SDS011;3132;42.622;23.328;2024-02-04T09:11:44;12.37;;;11.60;;
6197;SDS011;3132;42.622;23.328;2024-02-04T09:14:09;8.53;;;8.20;;
6197;SDS011;3132;42.622;23.328;2024-02-04T09:16:37;9.10;;;8.70;;
6197;SDS011;3132;42.622;23.328;2024-02-04T09:19:02;9.47;;;9.13;;
6197;SDS011;3132;42.622;23.328;2024-02-04T09:21:28;10.63;;;10.13;;
6197;SDS011;3132;42.622;23.328;2024-02-04T09:23:53;10.03;;;9.60;;
6197;SDS011;3132;42.622;23.328;2024-02-04T09:26:18;10.23;;;9.53;;
6197;SDS011;3132;42.622;23.328;2024-02-04T09:28:44;9.80;;;9.30;;
6197;SDS011;3132;42.622;23.328;2024-02-04T09:31:09;9.10;;;8.70;;
6197;SDS011;3132;42.622;23.328;2024-02-04T09:33:35;8.07;;;7.77;;
6197;SDS011;3132;42.622;23.328;2024-02-04T09:36:03;8.97;;;8.57;;
6197;SDS011;3132;42.622;23.328;2024-02-04T09:38:28;9.47;;;8.73;;
6197;SDS011;3132;42.622;23.328;2024-02-04T09:40:54;15.53;;;14.00;;
6197;SDS011;3132;42.622;23.328;2024-02-04T09:43:20;10.43;;;9.83;;
6197;SDS011;3132;42.622;23.328;2024-02-04T09:45:45;11.83;;;10.93;;
6197;SDS011;3132;42.622;23.328;2024-02-04T09:48:11;11.20;;;10.40;;
6197;SDS011;3132;42.622;23.328;2024-02-04T09:50:37;9.70;;;9.00;;
6197;SDS011;3132;42.622;23.328;2024-02-04T09:53:02;9.97;;;9.47;;
6197;SDS011;3132;42.622;23.328;2024-02-04T09:55:29;12.10;;;11.20;;
6197;SDS011;3132;42.622;23.328;2024-02-04T09:57:56;11.70;;;10.70;;
6197;SDS011;3132;42.622;23.328;2024-02-04T10:00:21;13.17;;;12.00;;
6197;SDS011;3132;42.622;23.328;2024-02-04T10:02:48;10.00;;;9.40;;
6197;SDS011;3132;42.622;23.328;2024-02-04T10:05:14;14.87;;;13.43;;
6197;SDS011;3132;42.622;23.328;2024-02-04T10:07:40;11.17;;;10.50;;
6197;SDS011;3132;42.622;23.328;2024-02-04T10:10:06;10.77;;;10.20;;
6197;SDS011;3132;42.622;23.328;2024-02-04T10:12:32;12.37;;;11.27;;
6197;SDS011;3132;42.622;23.328;2024-02-04T10:14:58;22.67;;;15.63;;
6197;SDS011;3132;42.622;23.328;2024-02-04T10:17:25;14.47;;;13.27;;
6197;SDS011;3132;42.622;23.328;2024-02-04T10:19:50;9.90;;;9.40;;
6197;SDS011;3132;42.622;23.328;2024-02-04T10:22:16;14.80;;;13.67;;
6197;SDS011;3132;42.622;23.328;2024-02-04T10:24:42;10.73;;;10.20;;
6197;SDS011;3132;42.622;23.328;2024-02-04T10:27:10;11.30;;;10.60;;
6197;SDS011;3132;42.622;23.328;2024-02-04T10:29:36;10.83;;;10.23;;
6197;SDS011;3132;42.622;23.328;2024-02-04T10:32:02;10.47;;;9.87;;
6197;SDS011;3132;42.622;23.328;2024-02-04T10:34:27;15.60;;;14.10;;
6197;SDS011;3132;42.622;23.328;2024-02-04T10:36:55;25.93;;;18.13;;
6197;SDS011;3132;42.622;23.328;2024-02-04T10:39:21;25.63;;;17.00;;
6197;SDS011;3132;42.622;23.328;2024-02-04T10:41:50;14.67;;;13.17;;
6197;SDS011;3132;42.622;23.328;2024-02-04T10:44:17;10.27;;;9.70;;
6197;SDS011;3132;42.622;23.328;2024-02-04T10:46:42;11.80;;;10.93;;
6197;SDS011;3132;42.622;23.328;2024-02-04T10:49:13;11.10;;;10.40;;
6197;SDS011;3132;42.622;23.328;2024-02-04T10:51:39;9.70;;;9.20;;
6197;SDS011;3132;42.622;23.328;2024-02-04T10:54:06;11.10;;;10.30;;
6197;SDS011;3132;42.622;23.328;2024-02-04T10:59:11;10.87;;;10.37;;
6197;SDS011;3132;42.622;23.328;2024-02-04T11:01:39;10.73;;;10.13;;
6197;SDS011;3132;42.622;23.328;2024-02-04T11:04:06;10.50;;;9.90;;
6197;SDS011;3132;42.622;23.328;2024-02-04T11:06:35;10.67;;;10.17;;
6197;SDS011;3132;42.622;23.328;2024-02-04T11:09:01;9.77;;;9.37;;
6197;SDS011;3132;42.622;23.328;2024-02-04T11:11:28;9.97;;;9.47;;
6197;SDS011;3132;42.622;23.328;2024-02-04T11:13:58;10.40;;;9.90;;
6197;SDS011;3132;42.622;23.328;2024-02-04T11:22:04;10.00;;;9.50;;
6197;SDS011;3132;42.622;23.328;2024-02-04T11:27:24;10.10;;;9.60;;
6197;SDS011;3132;42.622;23.328;2024-02-04T11:29:51;9.40;;;9.00;;
6197;SDS011;3132;42.622;23.328;2024-02-04T11:32:17;10.23;;;9.83;;
6197;SDS011;3132;42.622;23.328;2024-02-04T11:34:43;10.57;;;10.07;;
6197;SDS011;3132;42.622;23.328;2024-02-04T11:37:16;9.53;;;9.13;;
6197;SDS011;3132;42.622;23.328;2024-02-04T11:39:52;10.10;;;9.60;;
6197;SDS011;3132;42.622;23.328;2024-02-04T11:42:19;10.17;;;9.57;;
6197;SDS011;3132;42.622;23.328;2024-02-04T11:44:46;9.17;;;8.73;;
6197;SDS011;3132;42.622;23.328;2024-02-04T11:47:11;9.70;;;9.30;;
6197;SDS011;3132;42.622;23.328;2024-02-04T11:49:36;9.63;;;9.20;;
6197;SDS011;3132;42.622;23.328;2024-02-04T11:52:02;8.90;;;8.50;;
6197;SDS011;3132;42.622;23.328;2024-02-04T11:54:28;9.93;;;9.50;;
6197;SDS011;3132;42.622;23.328;2024-02-04T11:56:53;10.20;;;9.43;;
6197;SDS011;3132;42.622;23.328;2024-02-04T11:59:22;10.03;;;9.60;;
6197;SDS011;3132;42.622;23.328;2024-02-04T12:01:49;9.97;;;9.57;;
6197;SDS011;3132;42.622;23.328;2024-02-04T12:04:18;10.07;;;9.40;;
6197;SDS011;3132;42.622;23.328;2024-02-04T12:06:44;10.83;;;10.23;;
6197;SDS011;3132;42.622;23.328;2024-02-04T12:09:09;10.20;;;9.63;;
6197;SDS011;3132;42.622;23.328;2024-02-04T12:11:37;9.53;;;9.13;;
6197;SDS011;3132;42.622;23.328;2024-02-04T12:14:04;8.87;;;8.47;;
6197;SDS011;3132;42.622;23.328;2024-02-04T12:16:31;8.97;;;8.57;;
6197;SDS011;3132;42.622;23.328;2024-02-04T12:18:58;9.80;;;9.23;;
6197;SDS011;3132;42.622;23.328;2024-02-04T12:21:25;9.33;;;8.70;;
6197;SDS011;3132;42.622;23.328;2024-02-04T12:23:50;8.80;;;8.40;;
6197;SDS011;3132;42.622;23.328;2024-02-04T12:26:16;9.53;;;9.13;;
6197;SDS011;3132;42.622;23.328;2024-02-04T12:28:42;8.80;;;8.37;;
6197;SDS011;3132;42.622;23.328;2024-02-04T12:31:07;9.63;;;9.03;;
6197;SDS011;3132;42.622;23.328;2024-02-04T12:33:40;9.40;;;8.80;;
6197;SDS011;3132;42.622;23.328;2024-02-04T12:36:06;9.13;;;8.73;;
6197;SDS011;3132;42.622;23.328;2024-02-04T12:38:32;8.87;;;8.40;;
6197;SDS011;3132;42.622;23.328;2024-02-04T12:41:01;9.53;;;8.87;;
6197;SDS011;3132;42.622;23.328;2024-02-04T12:43:28;9.43;;;8.70;;
6197;SDS011;3132;42.622;23.328;2024-02-04T12:45:55;9.13;;;8.60;;
6197;SDS011;3132;42.622;23.328;2024-02-04T12:48:21;9.83;;;9.43;;
6197;SDS011;3132;42.622;23.328;2024-02-04T12:50:48;10.40;;;9.63;;
6197;SDS011;3132;42.622;23.328;2024-02-04T12:53:13;10.70;;;9.80;;
6197;SDS011;3132;42.622;23.328;2024-02-04T12:55:40;10.17;;;9.77;;
6197;SDS011;3132;42.622;23.328;2024-02-04T12:58:11;10.03;;;9.53;;
6197;SDS011;3132;42.622;23.328;2024-02-04T13:00:39;9.27;;;8.87;;
6197;SDS011;3132;42.622;23.328;2024-02-04T13:03:06;10.13;;;9.70;;
6197;SDS011;3132;42.622;23.328;2024-02-04T13:05:36;9.67;;;8.97;;
6197;SDS011;3132;42.622;23.328;2024-02-04T13:08:02;10.63;;;10.13;;
6197;SDS011;3132;42.622;23.328;2024-02-04T13:10:30;10.00;;;9.27;;
6197;SDS011;3132;42.622;23.328;2024-02-04T13:13:06;9.43;;;9.00;;
6197;SDS011;3132;42.622;23.328;2024-02-04T13:15:42;10.73;;;10.13;;
6197;SDS011;3132;42.622;23.328;2024-02-04T13:18:08;10.07;;;9.67;;
6197;SDS011;3132;42.622;23.328;2024-02-04T13:20:36;9.17;;;8.73;;
6197;SDS011;3132;42.622;23.328;2024-02-04T13:23:02;9.47;;;9.07;;
6197;SDS011;3132;42.622;23.328;2024-02-04T13:25:30;9.20;;;8.63;;
6197;SDS011;3132;42.622;23.328;2024-02-04T13:27:56;10.43;;;9.93;;
6197;SDS011;3132;42.622;23.328;2024-02-04T13:30:21;9.17;;;8.67;;
6197;SDS011;3132;42.622;23.328;2024-02-04T13:32:47;10.43;;;9.70;;
6197;SDS011;3132;42.622;23.328;2024-02-04T13:35:12;10.57;;;9.93;;
6197;SDS011;3132;42.622;23.328;2024-02-04T13:37:41;10.10;;;9.60;;
6197;SDS011;3132;42.622;23.328;2024-02-04T13:40:15;9.70;;;9.30;;
6197;SDS011;3132;42.622;23.328;2024-02-04T13:42:41;10.37;;;9.47;;
6197;SDS011;3132;42.622;23.328;2024-02-04T13:45:07;9.70;;;9.10;;
6197;SDS011;3132;42.622;23.328;2024-02-04T13:47:33;9.90;;;9.50;;
6197;SDS011;3132;42.622;23.328;2024-02-04T13:49:59;10.27;;;9.77;;
6197;SDS011;3132;42.622;23.328;2024-02-04T13:52:25;10.33;;;9.83;;
6197;SDS011;3132;42.622;23.328;2024-02-04T13:54:52;10.57;;;9.73;;
6197;SDS011;3132;42.622;23.328;2024-02-04T13:57:17;10.27;;;9.47;;
6197;SDS011;3132;42.622;23.328;2024-02-04T13:59:43;9.87;;;9.33;;
6197;SDS011;3132;42.622;23.328;2024-02-04T14:02:08;9.73;;;9.23;;
6197;SDS011;3132;42.622;23.328;2024-02-04T14:04:34;10.00;;;9.50;;
6197;SDS011;3132;42.622;23.328;2024-02-04T14:07:00;9.87;;;9.37;;
6197;SDS011;3132;42.622;23.328;2024-02-04T14:09:25;10.13;;;9.27;;
6197;SDS011;3132;42.622;23.328;2024-02-04T14:11:51;10.67;;;10.17;;
6197;SDS011;3132;42.622;23.328;2024-02-04T14:14:19;10.23;;;9.50;;
6197;SDS011;3132;42.622;23.328;2024-02-04T14:16:45;10.77;;;10.27;;
6197;SDS011;3132;42.622;23.328;2024-02-04T14:19:10;8.90;;;8.57;;
6197;SDS011;3132;42.622;23.328;2024-02-04T14:21:38;9.67;;;9.17;;
6197;SDS011;3132;42.622;23.328;2024-02-04T14:24:03;10.37;;;9.87;;
6197;SDS011;3132;42.622;23.328;2024-02-04T14:26:29;10.90;;;10.40;;
6197;SDS011;3132;42.622;23.328;2024-02-04T14:28:54;10.00;;;9.50;;
6197;SDS011;3132;42.622;23.328;2024-02-04T14:31:19;10.90;;;10.20;;
6197;SDS011;3132;42.622;23.328;2024-02-04T14:33:46;11.23;;;10.33;;
6197;SDS011;3132;42.622;23.328;2024-02-04T14:36:12;11.37;;;10.50;;
6197;SDS011;3132;42.622;23.328;2024-02-04T14:38:37;10.17;;;9.57;;
6197;SDS011;3132;42.622;23.328;2024-02-04T14:41:03;12.80;;;12.00;;
6197;SDS011;3132;42.622;23.328;2024-02-04T14:43:29;10.47;;;10.07;;
6197;SDS011;3132;42.622;23.328;2024-02-04T14:45:54;10.00;;;9.53;;
6197;SDS011;3132;42.622;23.328;2024-02-04T14:48:20;10.93;;;10.10;;
6197;SDS011;3132;42.622;23.328;2024-02-04T14:50:45;10.80;;;10.20;;
6197;SDS011;3132;42.622;23.328;2024-02-04T14:53:10;10.63;;;10.07;;
6197;SDS011;3132;42.622;23.328;2024-02-04T14:55:36;10.93;;;10.33;;
6197;SDS011;3132;42.622;23.328;2024-02-04T14:58:01;11.40;;;10.67;;
6197;SDS011;3132;42.622;23.328;2024-02-04T15:00:26;10.77;;;9.83;;